sensor_id;sensor_type;location;lat;lon;timestamp;pressure;altitude;pressure_sealevel;temperature
70435;BMP280;57876;47.792;12.960;2022-07-06T00:00:46;97285.38;;;20.08
70435;BMP280;57876;47.792;12.960;2022-07-06T00:03:10;97276.41;;;20.07
70435;BMP280;57876;47.792;12.960;2022-07-06T00:05:34;97279.91;;;20.08
70435;BMP280;57876;47.792;12.960;2022-07-06T00:07:59;97275.66;;;20.07
70435;BMP280;57876;47.792;12.960;2022-07-06T00:10:23;97275.13;;;20.08
70435;BMP280;57876;47.792;12.960;2022-07-06T00:12:48;97286.66;;;20.07
70435;BMP280;57876;47.792;12.960;2022-07-06T00:15:12;97269.63;;;20.08
70435;BMP280;57876;47.792;12.960;2022-07-06T00:17:36;97267.44;;;20.07
70435;BMP280;57876;47.792;12.960;2022-07-06T00:20:01;97281.91;;;20.07
70435;BMP280;57876;47.792;12.960;2022-07-06T00:22:25;97270.91;;;20.07
70435;BMP280;57876;47.792;12.960;2022-07-06T00:24:49;97261.94;;;20.07
70435;BMP280;57876;47.792;12.960;2022-07-06T00:27:14;97264.69;;;20.07
70435;BMP280;57876;47.792;12.960;2022-07-06T00:29:38;97262.66;;;20.07
70435;BMP280;57876;47.792;12.960;2022-07-06T00:32:07;97257.19;;;20.07
70435;BMP280;57876;47.792;12.960;2022-07-06T00:34:32;97258.47;;;20.06
70435;BMP280;57876;47.792;12.960;2022-07-06T00:36:56;97269.47;;;20.06
70435;BMP280;57876;47.792;12.960;2022-07-06T00:39:20;97259.19;;;20.07
70435;BMP280;57876;47.792;12.960;2022-07-06T00:41:46;97255.72;;;20.06
70435;BMP280;57876;47.792;12.960;2022-07-06T00:44:10;97252.22;;;20.06
70435;BMP280;57876;47.792;12.960;2022-07-06T00:46:34;97261.22;;;20.06
70435;BMP280;57876;47.792;12.960;2022-07-06T00:48:59;97250.78;;;20.05
70435;BMP280;57876;47.792;12.960;2022-07-06T00:51:28;97255.72;;;20.06
70435;BMP280;57876;47.792;12.960;2022-07-06T00:53:54;97263.97;;;20.06
70435;BMP280;57876;47.792;12.960;2022-07-06T00:56:19;97260.47;;;20.06
70435;BMP280;57876;47.792;12.960;2022-07-06T00:58:43;97265.41;;;20.07
70435;BMP280;57876;47.792;12.960;2022-07-06T01:01:08;97260.47;;;20.06
70435;BMP280;57876;47.792;12.960;2022-07-06T01:03:32;97258.47;;;20.06
70435;BMP280;57876;47.792;12.960;2022-07-06T01:05:57;97261.22;;;20.06
70435;BMP280;57876;47.792;12.960;2022-07-06T01:08:22;97257.72;;;20.06
70435;BMP280;57876;47.792;12.960;2022-07-06T01:10:46;97257.03;;;20.05
70435;BMP280;57876;47.792;12.960;2022-07-06T01:13:11;97254.97;;;20.06
70435;BMP280;57876;47.792;12.960;2022-07-06T01:15:35;97254.28;;;20.05
70435;BMP280;57876;47.792;12.960;2022-07-06T01:18:00;97268.72;;;20.06
70435;BMP280;57876;47.792;12.960;2022-07-06T01:20:25;97262.50;;;20.05
70435;BMP280;57876;47.792;12.960;2022-07-06T01:22:51;97254.28;;;20.05
70435;BMP280;57876;47.792;12.960;2022-07-06T01:25:16;97257.03;;;20.05
70435;BMP280;57876;47.792;12.960;2022-07-06T01:27:42;97259.75;;;20.05
70435;BMP280;57876;47.792;12.960;2022-07-06T01:30:08;97254.28;;;20.05
70435;BMP280;57876;47.792;12.960;2022-07-06T01:32:34;97261.78;;;20.05
70435;BMP280;57876;47.792;12.960;2022-07-06T01:34:59;97259.75;;;20.05
70435;BMP280;57876;47.792;12.960;2022-07-06T01:37:24;97252.84;;;20.05
70435;BMP280;57876;47.792;12.960;2022-07-06T01:39:48;97248.78;;;20.05
70435;BMP280;57876;47.792;12.960;2022-07-06T01:42:12;97252.09;;;20.04
70435;BMP280;57876;47.792;12.960;2022-07-06T01:44:37;97259.03;;;20.05
70435;BMP280;57876;47.792;12.960;2022-07-06T01:47:01;97256.28;;;20.05
70435;BMP280;57876;47.792;12.960;2022-07-06T01:49:25;97267.25;;;20.05
70435;BMP280;57876;47.792;12.960;2022-07-06T01:51:50;97267.25;;;20.05
70435;BMP280;57876;47.792;12.960;2022-07-06T01:54:14;97272.06;;;20.05
70435;BMP280;57876;47.792;12.960;2022-07-06T01:56:39;97264.53;;;20.05
70435;BMP280;57876;47.792;12.960;2022-07-06T01:59:03;97255.59;;;20.05
70435;BMP280;57876;47.792;12.960;2022-07-06T02:01:27;97257.59;;;20.04
70435;BMP280;57876;47.792;12.960;2022-07-06T02:03:52;97274.09;;;20.04
70435;BMP280;57876;47.792;12.960;2022-07-06T02:06:16;97272.06;;;20.05
70435;BMP280;57876;47.792;12.960;2022-07-06T02:08:41;97276.25;;;20.05
70435;BMP280;57876;47.792;12.960;2022-07-06T02:11:07;97276.81;;;20.04
70435;BMP280;57876;47.792;12.960;2022-07-06T02:13:31;97265.13;;;20.04
70435;BMP280;57876;47.792;12.960;2022-07-06T02:15:56;97265.84;;;20.04
70435;BMP280;57876;47.792;12.960;2022-07-06T02:18:20;97262.38;;;20.04
70435;BMP280;57876;47.792;12.960;2022-07-06T02:20:44;97267.88;;;20.04
70435;BMP280;57876;47.792;12.960;2022-07-06T02:23:09;97274.09;;;20.04
70435;BMP280;57876;47.792;12.960;2022-07-06T02:25:33;97274.09;;;20.04
70435;BMP280;57876;47.792;12.960;2022-07-06T02:27:58;97272.63;;;20.03
70435;BMP280;57876;47.792;12.960;2022-07-06T02:30:22;97270.63;;;20.04
70435;BMP280;57876;47.792;12.960;2022-07-06T02:32:47;97267.13;;;20.03
70435;BMP280;57876;47.792;12.960;2022-07-06T02:35:11;97270.63;;;20.04
70435;BMP280;57876;47.792;12.960;2022-07-06T02:37:36;97270.63;;;20.04
70435;BMP280;57876;47.792;12.960;2022-07-06T02:40:00;97263.66;;;20.03
70435;BMP280;57876;47.792;12.960;2022-07-06T02:42:25;97272.63;;;20.03
70435;BMP280;57876;47.792;12.960;2022-07-06T02:44:54;97269.88;;;20.03
70435;BMP280;57876;47.792;12.960;2022-07-06T02:47:19;97278.88;;;20.04
70435;BMP280;57876;47.792;12.960;2022-07-06T02:49:43;97278.88;;;20.04
70435;BMP280;57876;47.792;12.960;2022-07-06T02:52:07;97279.41;;;20.02
70435;BMP280;57876;47.792;12.960;2022-07-06T02:54:32;97278.13;;;20.03
70435;BMP280;57876;47.792;12.960;2022-07-06T02:56:56;97280.88;;;20.03
70435;BMP280;57876;47.792;12.960;2022-07-06T02:59:21;97285.66;;;20.03
70435;BMP280;57876;47.792;12.960;2022-07-06T03:01:45;97277.41;;;20.03
70435;BMP280;57876;47.792;12.960;2022-07-06T03:04:10;97275.94;;;20.02
70435;BMP280;57876;47.792;12.960;2022-07-06T03:06:34;97277.41;;;20.03
70435;BMP280;57876;47.792;12.960;2022-07-06T03:08:58;97271.16;;;20.02
70435;BMP280;57876;47.792;12.960;2022-07-06T03:11:23;97275.38;;;20.03
70435;BMP280;57876;47.792;12.960;2022-07-06T03:13:47;97286.94;;;20.02
70435;BMP280;57876;47.792;12.960;2022-07-06T03:16:11;97282.91;;;20.03
70435;BMP280;57876;47.792;12.960;2022-07-06T03:18:36;97280.16;;;20.03
70435;BMP280;57876;47.792;12.960;2022-07-06T03:21:00;97287.66;;;20.02
70435;BMP280;57876;47.792;12.960;2022-07-06T03:23:27;97282.91;;;20.03
70435;BMP280;57876;47.792;12.960;2022-07-06T03:25:51;97287.66;;;20.02
70435;BMP280;57876;47.792;12.960;2022-07-06T03:28:16;97287.66;;;20.02
70435;BMP280;57876;47.792;12.960;2022-07-06T03:30:40;97287.66;;;20.02
70435;BMP280;57876;47.792;12.960;2022-07-06T03:33:04;97282.16;;;20.02
70435;BMP280;57876;47.792;12.960;2022-07-06T03:35:29;97284.91;;;20.02
70435;BMP280;57876;47.792;12.960;2022-07-06T03:37:54;97278.69;;;20.02
70435;BMP280;57876;47.792;12.960;2022-07-06T03:40:18;97284.19;;;20.02
70435;BMP280;57876;47.792;12.960;2022-07-06T03:42:42;97279.41;;;20.02
70435;BMP280;57876;47.792;12.960;2022-07-06T03:45:07;97280.72;;;20.01
70435;BMP280;57876;47.792;12.960;2022-07-06T03:47:32;97276.66;;;20.02
70435;BMP280;57876;47.792;12.960;2022-07-06T03:49:57;97278.69;;;20.02
70435;BMP280;57876;47.792;12.960;2022-07-06T03:52:21;97280.72;;;20.01
70435;BMP280;57876;47.792;12.960;2022-07-06T03:54:45;97275.94;;;20.02
70435;BMP280;57876;47.792;12.960;2022-07-06T03:57:10;97278.69;;;20.02
70435;BMP280;57876;47.792;12.960;2022-07-06T03:59:37;97273.22;;;20.02
70435;BMP280;57876;47.792;12.960;2022-07-06T04:02:01;97284.91;;;20.02
70435;BMP280;57876;47.792;12.960;2022-07-06T04:04:26;97275.94;;;20.02
70435;BMP280;57876;47.792;12.960;2022-07-06T04:06:50;97284.19;;;20.02
70435;BMP280;57876;47.792;12.960;2022-07-06T04:09:14;97286.19;;;20.01
70435;BMP280;57876;47.792;12.960;2022-07-06T04:11:39;97292.44;;;20.02
70435;BMP280;57876;47.792;12.960;2022-07-06T04:14:03;97302.13;;;20.03
70435;BMP280;57876;47.792;12.960;2022-07-06T04:16:28;97295.19;;;20.02
70435;BMP280;57876;47.792;12.960;2022-07-06T04:18:52;97301.38;;;20.02
70435;BMP280;57876;47.792;12.960;2022-07-06T04:21:16;97304.13;;;20.02
70435;BMP280;57876;47.792;12.960;2022-07-06T04:23:41;97298.63;;;20.02
70435;BMP280;57876;47.792;12.960;2022-07-06T04:26:05;97302.13;;;20.03
70435;BMP280;57876;47.792;12.960;2022-07-06T04:28:30;97294.44;;;20.01
70435;BMP280;57876;47.792;12.960;2022-07-06T04:30:54;97295.19;;;20.02
70435;BMP280;57876;47.792;12.960;2022-07-06T04:33:18;97298.63;;;20.02
70435;BMP280;57876;47.792;12.960;2022-07-06T04:35:43;97298.63;;;20.02
70435;BMP280;57876;47.792;12.960;2022-07-06T04:38:07;97289.69;;;20.02
70435;BMP280;57876;47.792;12.960;2022-07-06T04:40:32;97290.41;;;20.02
70435;BMP280;57876;47.792;12.960;2022-07-06T04:42:56;97291.84;;;20.03
70435;BMP280;57876;47.792;12.960;2022-07-06T04:45:21;97295.19;;;20.02
70435;BMP280;57876;47.792;12.960;2022-07-06T04:47:45;97293.16;;;20.02
70435;BMP280;57876;47.792;12.960;2022-07-06T04:50:09;97299.38;;;20.03
70435;BMP280;57876;47.792;12.960;2022-07-06T04:52:34;97297.34;;;20.03
70435;BMP280;57876;47.792;12.960;2022-07-06T04:54:58;97293.88;;;20.03
70435;BMP280;57876;47.792;12.960;2022-07-06T04:57:23;97296.63;;;20.03
70435;BMP280;57876;47.792;12.960;2022-07-06T04:59:49;97293.88;;;20.03
70435;BMP280;57876;47.792;12.960;2022-07-06T05:02:14;97302.84;;;20.03
70435;BMP280;57876;47.792;12.960;2022-07-06T05:04:38;97302.84;;;20.03
70435;BMP280;57876;47.792;12.960;2022-07-06T05:07:03;97304.28;;;20.04
70435;BMP280;57876;47.792;12.960;2022-07-06T05:09:27;97308.47;;;20.05
70435;BMP280;57876;47.792;12.960;2022-07-06T05:11:52;97305.72;;;20.05
70435;BMP280;57876;47.792;12.960;2022-07-06T05:14:16;97306.34;;;20.04
70435;BMP280;57876;47.792;12.960;2022-07-06T05:16:41;97305.72;;;20.05
70435;BMP280;57876;47.792;12.960;2022-07-06T05:19:05;97306.47;;;20.05
70435;BMP280;57876;47.792;12.960;2022-07-06T05:21:29;97309.94;;;20.06
70435;BMP280;57876;47.792;12.960;2022-07-06T05:23:54;97312.66;;;20.06
70435;BMP280;57876;47.792;12.960;2022-07-06T05:26:18;97317.44;;;20.05
70435;BMP280;57876;47.792;12.960;2022-07-06T05:28:43;97317.44;;;20.05
70435;BMP280;57876;47.792;12.960;2022-07-06T05:31:07;97320.91;;;20.06
70435;BMP280;57876;47.792;12.960;2022-07-06T05:33:32;97318.91;;;20.06
70435;BMP280;57876;47.792;12.960;2022-07-06T05:35:56;97320.91;;;20.06
70435;BMP280;57876;47.792;12.960;2022-07-06T05:38:20;97321.66;;;20.06
70435;BMP280;57876;47.792;12.960;2022-07-06T05:40:45;97320.38;;;20.07
70435;BMP280;57876;47.792;12.960;2022-07-06T05:43:09;97317.63;;;20.07
70435;BMP280;57876;47.792;12.960;2022-07-06T05:45:34;97318.34;;;20.08
70435;BMP280;57876;47.792;12.960;2022-07-06T05:47:58;97324.00;;;20.10
70435;BMP280;57876;47.792;12.960;2022-07-06T05:50:41;97329.47;;;20.10
70435;BMP280;57876;47.792;12.960;2022-07-06T05:53:06;97330.19;;;20.10
70435;BMP280;57876;47.792;12.960;2022-07-06T05:55:30;97325.44;;;20.11
70435;BMP280;57876;47.792;12.960;2022-07-06T05:57:55;97319.22;;;20.10
70435;BMP280;57876;47.792;12.960;2022-07-06T06:00:20;97319.94;;;20.11
70435;BMP280;57876;47.792;12.960;2022-07-06T06:02:45;97326.91;;;20.12
70435;BMP280;57876;47.792;12.960;2022-07-06T06:05:10;97329.66;;;20.12
70435;BMP280;57876;47.792;12.960;2022-07-06T06:07:36;97322.13;;;20.12
70435;BMP280;57876;47.792;12.960;2022-07-06T06:10:02;97327.44;;;20.10
70435;BMP280;57876;47.792;12.960;2022-07-06T06:12:27;97322.13;;;20.12
70435;BMP280;57876;47.792;12.960;2022-07-06T06:14:51;97325.59;;;20.13
70435;BMP280;57876;47.792;12.960;2022-07-06T06:17:16;97317.91;;;20.11
70435;BMP280;57876;47.792;12.960;2022-07-06T06:19:40;97327.59;;;20.12
70435;BMP280;57876;47.792;12.960;2022-07-06T06:22:04;97327.59;;;20.12
70435;BMP280;57876;47.792;12.960;2022-07-06T06:24:29;97333.69;;;20.11
70435;BMP280;57876;47.792;12.960;2022-07-06T06:26:53;97332.94;;;20.10
70435;BMP280;57876;47.792;12.960;2022-07-06T06:29:18;97328.19;;;20.11
70435;BMP280;57876;47.792;12.960;2022-07-06T06:31:42;97333.09;;;20.12
70435;BMP280;57876;47.792;12.960;2022-07-06T06:34:07;97329.03;;;20.13
70435;BMP280;57876;47.792;12.960;2022-07-06T06:36:32;97335.97;;;20.14
70435;BMP280;57876;47.792;12.960;2022-07-06T06:38:56;97331.97;;;20.15
70435;BMP280;57876;47.792;12.960;2022-07-06T06:41:20;97332.69;;;20.16
70435;BMP280;57876;47.792;12.960;2022-07-06T06:43:45;97333.56;;;20.18
70435;BMP280;57876;47.792;12.960;2022-07-06T06:46:10;97335.56;;;20.18
70435;BMP280;57876;47.792;12.960;2022-07-06T06:48:34;97337.03;;;20.19
70435;BMP280;57876;47.792;12.960;2022-07-06T06:50:58;97336.31;;;20.18
70435;BMP280;57876;47.792;12.960;2022-07-06T06:53:23;97337.75;;;20.19
70435;BMP280;57876;47.792;12.960;2022-07-06T06:55:47;97337.75;;;20.19
70435;BMP280;57876;47.792;12.960;2022-07-06T06:58:12;97338.47;;;20.20
70435;BMP280;57876;47.792;12.960;2022-07-06T07:00:36;97339.22;;;20.20
70435;BMP280;57876;47.792;12.960;2022-07-06T07:03:00;97330.97;;;20.20
70435;BMP280;57876;47.792;12.960;2022-07-06T07:05:25;97326.94;;;20.21
70435;BMP280;57876;47.792;12.960;2022-07-06T07:07:50;97333.13;;;20.22
70435;BMP280;57876;47.792;12.960;2022-07-06T07:10:14;97324.88;;;20.22
70435;BMP280;57876;47.792;12.960;2022-07-06T07:12:45;97323.59;;;20.23
70435;BMP280;57876;47.792;12.960;2022-07-06T07:15:10;97318.81;;;20.23
70435;BMP280;57876;47.792;12.960;2022-07-06T07:17:34;97312.63;;;20.23
70435;BMP280;57876;47.792;12.960;2022-07-06T07:19:59;97327.22;;;20.25
70435;BMP280;57876;47.792;12.960;2022-07-06T07:22:23;97326.50;;;20.25
70435;BMP280;57876;47.792;12.960;2022-07-06T07:24:48;97323.16;;;20.26
70435;BMP280;57876;47.792;12.960;2022-07-06T07:27:12;97317.66;;;20.26
70435;BMP280;57876;47.792;12.960;2022-07-06T07:29:37;97323.16;;;20.26
70435;BMP280;57876;47.792;12.960;2022-07-06T07:32:01;97314.38;;;20.28
70435;BMP280;57876;47.792;12.960;2022-07-06T07:34:26;97319.13;;;20.27
70435;BMP280;57876;47.792;12.960;2022-07-06T07:36:50;97313.63;;;20.27
70435;BMP280;57876;47.792;12.960;2022-07-06T07:39:15;97319.84;;;20.28
70435;BMP280;57876;47.792;12.960;2022-07-06T07:41:39;97318.56;;;20.29
70435;BMP280;57876;47.792;12.960;2022-07-06T07:44:04;97318.56;;;20.29
70435;BMP280;57876;47.792;12.960;2022-07-06T07:46:28;97318.56;;;20.29
70435;BMP280;57876;47.792;12.960;2022-07-06T07:48:53;97320.00;;;20.30
70435;BMP280;57876;47.792;12.960;2022-07-06T07:51:17;97317.25;;;20.30
70435;BMP280;57876;47.792;12.960;2022-07-06T07:53:42;97314.50;;;20.30
70435;BMP280;57876;47.792;12.960;2022-07-06T07:56:07;97317.97;;;20.30
70435;BMP280;57876;47.792;12.960;2022-07-06T07:58:31;97315.22;;;20.30
70435;BMP280;57876;47.792;12.960;2022-07-06T08:00:55;97316.69;;;20.31
70435;BMP280;57876;47.792;12.960;2022-07-06T08:03:20;97302.94;;;20.31
70435;BMP280;57876;47.792;12.960;2022-07-06T08:05:44;97305.69;;;20.31
70435;BMP280;57876;47.792;12.960;2022-07-06T08:08:11;97308.44;;;20.31
70435;BMP280;57876;47.792;12.960;2022-07-06T08:10:35;97318.16;;;20.32
70435;BMP280;57876;47.792;12.960;2022-07-06T08:12:59;97313.34;;;20.33
70435;BMP280;57876;47.792;12.960;2022-07-06T08:15:24;97316.84;;;20.33
70435;BMP280;57876;47.792;12.960;2022-07-06T08:17:49;97305.84;;;20.33
70435;BMP280;57876;47.792;12.960;2022-07-06T08:20:13;97310.63;;;20.33
70435;BMP280;57876;47.792;12.960;2022-07-06T08:22:38;97308.59;;;20.33
70435;BMP280;57876;47.792;12.960;2022-07-06T08:25:03;97308.59;;;20.33
70435;BMP280;57876;47.792;12.960;2022-07-06T08:27:28;97303.78;;;20.34
70435;BMP280;57876;47.792;12.960;2022-07-06T08:29:52;97304.53;;;20.34
70435;BMP280;57876;47.792;12.960;2022-07-06T08:32:16;97305.13;;;20.33
70435;BMP280;57876;47.792;12.960;2022-07-06T08:34:41;97301.50;;;20.30
70435;BMP280;57876;47.792;12.960;2022-07-06T08:37:07;97310.44;;;20.31
70435;BMP280;57876;47.792;12.960;2022-07-06T08:39:32;97307.00;;;20.30
70435;BMP280;57876;47.792;12.960;2022-07-06T08:41:58;97306.84;;;20.28
70435;BMP280;57876;47.792;12.960;2022-07-06T08:44:23;97306.13;;;20.28
70435;BMP280;57876;47.792;12.960;2022-07-06T08:46:48;97301.91;;;20.27
70435;BMP280;57876;47.792;12.960;2022-07-06T08:49:16;97314.19;;;20.26
70435;BMP280;57876;47.792;12.960;2022-07-06T08:51:41;97317.66;;;20.26
70435;BMP280;57876;47.792;12.960;2022-07-06T08:54:05;97314.19;;;20.26
70435;BMP280;57876;47.792;12.960;2022-07-06T08:56:31;97323.16;;;20.26
70435;BMP280;57876;47.792;12.960;2022-07-06T08:58:56;97323.16;;;20.26
70435;BMP280;57876;47.792;12.960;2022-07-06T09:01:21;97314.19;;;20.26
70435;BMP280;57876;47.792;12.960;2022-07-06T09:03:48;97315.53;;;20.25
70435;BMP280;57876;47.792;12.960;2022-07-06T09:06:16;97321.72;;;20.25
70435;BMP280;57876;47.792;12.960;2022-07-06T09:08:42;97316.81;;;20.24
70435;BMP280;57876;47.792;12.960;2022-07-06T09:11:07;97317.53;;;20.24
70435;BMP280;57876;47.792;12.960;2022-07-06T09:13:32;97319.56;;;20.24
70435;BMP280;57876;47.792;12.960;2022-07-06T09:16:09;97314.78;;;20.24
70435;BMP280;57876;47.792;12.960;2022-07-06T09:18:37;97307.84;;;20.23
70435;BMP280;57876;47.792;12.960;2022-07-06T09:21:01;97311.88;;;20.22
70435;BMP280;57876;47.792;12.960;2022-07-06T09:23:26;97308.38;;;20.22
70435;BMP280;57876;47.792;12.960;2022-07-06T09:25:51;97322.88;;;20.22
70435;BMP280;57876;47.792;12.960;2022-07-06T09:28:15;97311.75;;;20.20
70435;BMP280;57876;47.792;12.960;2022-07-06T09:30:40;97315.19;;;20.21
70435;BMP280;57876;47.792;12.960;2022-07-06T09:33:07;97314.50;;;20.20
70435;BMP280;57876;47.792;12.960;2022-07-06T09:35:36;97308.25;;;20.20
70435;BMP280;57876;47.792;12.960;2022-07-06T09:40:33;97315.78;;;20.19
70435;BMP280;57876;47.792;12.960;2022-07-06T09:43:17;97322.00;;;20.20
70435;BMP280;57876;47.792;12.960;2022-07-06T09:45:49;97314.31;;;20.18
70435;BMP280;57876;47.792;12.960;2022-07-06T09:48:25;97314.31;;;20.18
70435;BMP280;57876;47.792;12.960;2022-07-06T09:50:52;97315.66;;;20.17
70435;BMP280;57876;47.792;12.960;2022-07-06T09:53:17;97319.09;;;20.18
70435;BMP280;57876;47.792;12.960;2022-07-06T09:55:45;97315.03;;;20.19
70435;BMP280;57876;47.792;12.960;2022-07-06T09:58:11;97318.41;;;20.17
70435;BMP280;57876;47.792;12.960;2022-07-06T10:00:35;97317.06;;;20.18
70435;BMP280;57876;47.792;12.960;2022-07-06T10:03:00;97310.84;;;20.18
70435;BMP280;57876;47.792;12.960;2022-07-06T10:05:25;97310.84;;;20.18
70435;BMP280;57876;47.792;12.960;2022-07-06T10:07:56;97310.16;;;20.17
70435;BMP280;57876;47.792;12.960;2022-07-06T10:10:22;97314.91;;;20.17
70435;BMP280;57876;47.792;12.960;2022-07-06T10:12:48;97304.66;;;20.17
70435;BMP280;57876;47.792;12.960;2022-07-06T10:15:14;97310.16;;;20.17
70435;BMP280;57876;47.792;12.960;2022-07-06T10:17:39;97311.59;;;20.18
70435;BMP280;57876;47.792;12.960;2022-07-06T10:20:05;97308.84;;;20.18
70435;BMP280;57876;47.792;12.960;2022-07-06T10:22:30;97308.84;;;20.18
70435;BMP280;57876;47.792;12.960;2022-07-06T10:24:55;97308.09;;;20.18
70435;BMP280;57876;47.792;12.960;2022-07-06T10:27:23;97312.28;;;20.19
70435;BMP280;57876;47.792;12.960;2022-07-06T10:29:48;97310.84;;;20.18
70435;BMP280;57876;47.792;12.960;2022-07-06T10:32:13;97310.84;;;20.18
70435;BMP280;57876;47.792;12.960;2022-07-06T10:34:40;97312.91;;;20.17
70435;BMP280;57876;47.792;12.960;2022-07-06T10:37:05;97305.22;;;20.16
70435;BMP280;57876;47.792;12.960;2022-07-06T10:39:37;97309.53;;;20.19
70435;BMP280;57876;47.792;12.960;2022-07-06T10:42:46;97305.34;;;20.18
70435;BMP280;57876;47.792;12.960;2022-07-06T10:46:05;97302.47;;;20.16
70435;BMP280;57876;47.792;12.960;2022-07-06T10:50:35;97308.69;;;20.16
70435;BMP280;57876;47.792;12.960;2022-07-06T10:52:59;97308.69;;;20.16
70435;BMP280;57876;47.792;12.960;2022-07-06T10:55:36;97305.94;;;20.16
70435;BMP280;57876;47.792;12.960;2022-07-06T10:58:02;97305.94;;;20.16
70435;BMP280;57876;47.792;12.960;2022-07-06T11:13:49;97296.97;;;20.16
70435;BMP280;57876;47.792;12.960;2022-07-06T11:16:15;97296.97;;;20.16
70435;BMP280;57876;47.792;12.960;2022-07-06T11:18:42;97297.72;;;20.16
70435;BMP280;57876;47.792;12.960;2022-07-06T11:21:20;97296.97;;;20.16
70435;BMP280;57876;47.792;12.960;2022-07-06T11:23:49;97296.25;;;20.15
70435;BMP280;57876;47.792;12.960;2022-07-06T11:26:14;97296.97;;;20.16
70435;BMP280;57876;47.792;12.960;2022-07-06T11:28:39;97308.69;;;20.16
70435;BMP280;57876;47.792;12.960;2022-07-06T11:31:03;97301.75;;;20.15
70435;BMP280;57876;47.792;12.960;2022-07-06T11:33:29;97301.75;;;20.15
70435;BMP280;57876;47.792;12.960;2022-07-06T11:36:11;97303.91;;;20.17
70435;BMP280;57876;47.792;12.960;2022-07-06T11:38:36;97307.41;;;20.17
70435;BMP280;57876;47.792;12.960;2022-07-06T11:41:00;97300.59;;;20.18
70435;BMP280;57876;47.792;12.960;2022-07-06T11:43:25;97289.59;;;20.18
70435;BMP280;57876;47.792;12.960;2022-07-06T11:45:49;97296.56;;;20.19
70435;BMP280;57876;47.792;12.960;2022-07-06T11:48:13;97307.53;;;20.19
70435;BMP280;57876;47.792;12.960;2022-07-06T11:50:38;97295.25;;;20.20
70435;BMP280;57876;47.792;12.960;2022-07-06T11:53:03;97293.06;;;20.19
70435;BMP280;57876;47.792;12.960;2022-07-06T11:55:28;97291.78;;;20.20
70435;BMP280;57876;47.792;12.960;2022-07-06T11:57:53;97291.59;;;20.18
70435;BMP280;57876;47.792;12.960;2022-07-06T12:00:20;97295.09;;;20.18
70435;BMP280;57876;47.792;12.960;2022-07-06T12:03:01;97285.44;;;20.17
70435;BMP280;57876;47.792;12.960;2022-07-06T12:05:30;97292.34;;;20.18
70435;BMP280;57876;47.792;12.960;2022-07-06T12:08:05;97274.44;;;20.17
70435;BMP280;57876;47.792;12.960;2022-07-06T12:10:33;97276.44;;;20.17
70435;BMP280;57876;47.792;12.960;2022-07-06T12:13:03;97284.69;;;20.17
70435;BMP280;57876;47.792;12.960;2022-07-06T12:15:28;97281.22;;;20.16
70435;BMP280;57876;47.792;12.960;2022-07-06T12:17:52;97272.97;;;20.16
70435;BMP280;57876;47.792;12.960;2022-07-06T12:20:16;97269.50;;;20.16
70435;BMP280;57876;47.792;12.960;2022-07-06T12:22:43;97273.69;;;20.17
70435;BMP280;57876;47.792;12.960;2022-07-06T12:25:08;97264.75;;;20.16
70435;BMP280;57876;47.792;12.960;2022-07-06T12:27:34;97270.22;;;20.16
70435;BMP280;57876;47.792;12.960;2022-07-06T12:30:08;97276.44;;;20.17
70435;BMP280;57876;47.792;12.960;2022-07-06T12:32:33;97270.94;;;20.17
70435;BMP280;57876;47.792;12.960;2022-07-06T12:35:03;97273.69;;;20.17
70435;BMP280;57876;47.792;12.960;2022-07-06T12:37:28;97283.97;;;20.16
70435;BMP280;57876;47.792;12.960;2022-07-06T12:39:52;97271.69;;;20.17
70435;BMP280;57876;47.792;12.960;2022-07-06T12:42:17;97265.59;;;20.19
70435;BMP280;57876;47.792;12.960;2022-07-06T12:44:49;97270.94;;;20.17
70435;BMP280;57876;47.792;12.960;2022-07-06T12:47:19;97275.28;;;20.20
70435;BMP280;57876;47.792;12.960;2022-07-06T12:49:45;97269.63;;;20.18
70435;BMP280;57876;47.792;12.960;2022-07-06T12:52:12;97253.00;;;20.16
70435;BMP280;57876;47.792;12.960;2022-07-06T12:54:48;97257.94;;;20.17
70435;BMP280;57876;47.792;12.960;2022-07-06T12:57:23;97251.00;;;20.16
70435;BMP280;57876;47.792;12.960;2022-07-06T13:02:31;97248.97;;;20.17
70435;BMP280;57876;47.792;12.960;2022-07-06T13:04:59;97257.22;;;20.17
70435;BMP280;57876;47.792;12.960;2022-07-06T13:07:25;97257.94;;;20.17
70435;BMP280;57876;47.792;12.960;2022-07-06T13:09:50;97249.56;;;20.15
70435;BMP280;57876;47.792;12.960;2022-07-06T13:12:14;97251.72;;;20.17
70435;BMP280;57876;47.792;12.960;2022-07-06T13:14:39;97257.78;;;20.15
70435;BMP280;57876;47.792;12.960;2022-07-06T13:17:03;97253.75;;;20.16
70435;BMP280;57876;47.792;12.960;2022-07-06T13:19:28;97259.25;;;20.16
70435;BMP280;57876;47.792;12.960;2022-07-06T13:21:52;97247.50;;;20.16
70435;BMP280;57876;47.792;12.960;2022-07-06T13:24:17;97253.75;;;20.16
70435;BMP280;57876;47.792;12.960;2022-07-06T13:26:41;97256.50;;;20.16
70435;BMP280;57876;47.792;12.960;2022-07-06T13:29:06;97255.19;;;20.17
70435;BMP280;57876;47.792;12.960;2022-07-06T13:31:30;97252.47;;;20.17
70435;BMP280;57876;47.792;12.960;2022-07-06T13:33:55;97256.63;;;20.18
70435;BMP280;57876;47.792;12.960;2022-07-06T13:36:20;97255.19;;;20.17
70435;BMP280;57876;47.792;12.960;2022-07-06T13:38:44;97252.47;;;20.17
70435;BMP280;57876;47.792;12.960;2022-07-06T13:41:09;97250.41;;;20.18
70435;BMP280;57876;47.792;12.960;2022-07-06T13:43:33;97259.97;;;20.17
70435;BMP280;57876;47.792;12.960;2022-07-06T13:46:01;97246.97;;;20.17
70435;BMP280;57876;47.792;12.960;2022-07-06T13:48:25;97242.88;;;20.18
70435;BMP280;57876;47.792;12.960;2022-07-06T13:50:49;97249.72;;;20.17
70435;BMP280;57876;47.792;12.960;2022-07-06T13:53:14;97246.22;;;20.17
70435;BMP280;57876;47.792;12.960;2022-07-06T13:55:38;97243.47;;;20.17
70435;BMP280;57876;47.792;12.960;2022-07-06T13:58:02;97244.22;;;20.17
70435;BMP280;57876;47.792;12.960;2022-07-06T14:00:27;97242.75;;;20.16
70435;BMP280;57876;47.792;12.960;2022-07-06T14:02:51;97254.47;;;20.17
70435;BMP280;57876;47.792;12.960;2022-07-06T14:05:16;97240.72;;;20.17
70435;BMP280;57876;47.792;12.960;2022-07-06T14:07:40;97240.00;;;20.16